Weather at Cricket Field

Public forecast

Using degrees Fahrenheit for public forecast. Weather courtesy of forecast.io.

Closest aviation weather report (METAR) to Cricket Field

Closest report is Olympia Regional Airport, 3.7 nm (6.8 km) NE.

2024/07/24 20:54 (retrieved 21 minutes ago)

KOLM 242054Z 10SM OVC047 22/12 A3011 RMK AO2 SLP196 T02220117 53002

Closest aviation forecast (TAF) to Cricket Field

Closest forecast is Olympia Regional Airport, 3.7 nm (6.8 km) NE.

2024/07/24 18:28 (retrieved 3 hours ago)

TAF KOLM 241726Z 2418/2518 20006KT P6SM SCT200 FM250300 02006KT P6SM SCT050 BKN150 FM250800 21006KT P6SM BKN050 FM251200 21006KT P6SM OVC035